Flight Track Log - Related Links

Times and Time Zones

All times are in EDT time to prevent confusion due to time zone crossing. See the SWA127 flight status page for this flight to view local times or setup timezone preferences in your user account.

Time Position Orientation Groundspeed Altitude Reporting Facility
EDT Latitude Longitude Course Direction KTS MPH feet Rate Location/Type
11:38AM 29.6356 -95.2675 148° Southeast 150 173 600  Level Houston Center
11:40AM 29.5589 -95.2114 148° Southeast 225 259 4,200 2,598 Climbing Houston Center
11:41AM 29.4967 -95.1658 147° Southeast 270 311 7,700 3,216 Climbing Houston Center
11:42AM 29.4125 -95.2106 205° Southwest 284 327 10,900 2,806 Climbing Houston Center
11:43AM 29.3297 -95.2600 208° Southwest 328 377 13,500 2,565 Climbing Houston Center
11:44AM 29.2436 -95.3125 208° Southwest 348 400 16,200 2,226 Climbing Houston Center
11:45AM 29.1892 -95.4119 238° Southwest 367 422 18,100 2,081 Climbing Houston Center
11:46AM 29.1392 -95.5189 242° Southwest 378 435 20,500 2,177 Climbing Houston Center
11:47AM 29.0881 -95.6275 242° Southwest 385 443 22,600 2,806 Climbing Houston Center
11:48AM 29.0275 -95.7542 241° Southwest 380 437 26,300 2,256 Climbing Houston Center
11:49AM 28.9778 -95.8550 241° Southwest 367 422 27,300 1,008 Climbing Houston Center
11:50AM 28.8844 -95.9247 213° Southwest 401 461 28,400 1,065 Climbing Houston Center
11:51AM 28.7864 -95.9903 210° Southwest 410 472 29,500 1,694 Climbing Houston Center
11:52AM 28.6853 -96.0583 211° Southwest 418 481 31,900 1,742 Climbing Houston Center
11:53AM 28.5733 -96.1328 210° Southwest 393 452 33,100 968 Climbing Houston Center
11:54AM 28.4758 -96.1961 210° Southwest 398 458 33,900 435 Climbing Houston Center
11:55AM 28.3761 -96.2636 211° Southwest 410 472 34,000 48 Climbing Houston Center
11:56AM 28.2742 -96.3314 210° Southwest 416 479 34,000  Level Houston Center
11:57AM 28.1733 -96.3969 210° Southwest 418 481 34,000  Level Houston Center
11:58AM 28.0728 -96.4636 210° Southwest 418 481 34,000  Level Houston Center
12:00PM 27.9525 -96.5419 210° Southwest 417 480 34,000  Level Houston Center
12:01PM 27.8528 -96.6086 211° Southwest 415 478 34,000  Level Houston Center
12:02PM 27.7528 -96.6736 210° Southwest 414 476 34,000  Level Houston Center
12:03PM 27.6528 -96.7389 210° Southwest 415 478 34,000 -387 Level Houston Center
12:04PM 27.5556 -96.8028 210° Southwest 409 471 33,200 -2,274 Descending Houston Center
12:05PM 27.4569 -96.8672 210° Southwest 408 470 29,300 -3,216 Descending Houston Center
12:06PM 27.3472 -96.9372 210° Southwest 415 478 26,500 -2,256 Descending Houston Center
12:07PM 27.2522 -96.9983 210° Southwest 404 465 24,600 -2,613 Descending Houston Center
12:08PM 27.1469 -97.0681 211° Southwest 373 429 21,100 -3,000 Descending Houston Center
12:09PM 27.0542 -97.1272 210° Southwest 378 435 18,400 -2,424 Descending Houston Center
12:09PM 26.9936 -97.1669 210° Southwest 376 433 17,100 -1,485 Descending Houston Center
12:10PM 26.9075 -97.2236 210° Southwest 346 398 16,000 -828 Descending Houston Center
12:11PM 26.8772 -97.2417 208° Southwest 339 390 15,900 -1,200 Descending Houston Center
12:11PM 26.8383 -97.2658 209° Southwest 307 353 14,900 -1,839 Descending Houston Center
12:12PM 26.7972 -97.2931 211° Southwest 310 357 14,000 -1,672 Descending Houston Center
12:12PM 26.7619 -97.3164 211° Southwest 304 350 13,200 -1,645 Descending Houston Center
12:13PM 26.7242 -97.3381 207° Southwest 299 344 12,300 -1,574 Descending Houston Center
12:13PM 26.6889 -97.3592 208° Southwest 298 343 11,600 -1,619 Descending Houston Center
12:14PM 26.6475 -97.3864 210° Southwest 292 336 10,600 -1,574 Descending Houston Center
12:14PM 26.6200 -97.4039 210° Southwest 286 329 10,000 -1,452 Descending Houston Center
12:15PM 26.5736 -97.4100 187° South 290 334 9,100 -1,455 Descending Houston Center
12:16PM 26.5389 -97.4125 184° South 274 315 8,400 -1,645 Descending Houston Center
12:16PM 26.4936 -97.4161 184° South 270 311 7,400 -1,522 Descending Houston Center
12:17PM 26.4533 -97.4194 184° South 261 300 6,700 -1,355 Descending Houston Center
12:17PM 26.4203 -97.4219 184° South 264 304 6,000 -1,636 Descending Houston Center
12:18PM 26.3867 -97.4261 186° South 255 293 5,200 -1,645 Descending Houston Center
12:18PM 26.3497 -97.4294 185° South 255 293 4,300 -1,672 Descending Houston Center
12:19PM 26.3161 -97.4358 190° South 257 296 3,500 -1,452 Descending Houston Center
12:19PM 26.2725 -97.4425 188° South 259 298 2,800 -1,200 Descending Houston Center
12:19PM 26.2500 -97.4472 191° South 257 296 2,400 -774 Descending Houston Center
12:20PM 26.2044 -97.4544 188° South 250 288 2,000 -304 Descending Houston Center
12:21PM 26.1697 -97.4814 215° Southwest 242 278 2,000  Level Houston Center
12:21PM 26.1444 -97.5028 217° Southwest 247 284 2,000  Level Houston Center
12:22PM 26.1197 -97.5253 219° Southwest 246 283 2,000  Level Houston Center
12:22PM 26.0894 -97.5483 214° Southwest 246 283 2,000  Level Houston Center
12:23PM 26.0597 -97.5731 217° Southwest 245 282 2,000  Level Houston Center
12:23PM 26.0381 -97.6033 231° Southwest 245 282 2,000  Level Houston Center
12:24PM 26.0475 -97.6331 289° West 234 269 2,000  Level Houston Center
12:24PM 26.0731 -97.6578 319° Northwest 225 259 2,000 -197 Level Houston Center
12:25PM 26.0992 -97.6633 349° North 211 243 1,800 -484 Descending Houston Center
12:25PM 26.1286 -97.6600 North 206 237 1,500 -327 Descending Houston Center
12:26PM 26.1431 -97.6597 North 156 180 1,500 -387 Level Houston Center
12:26PM 26.1664 -97.6592 North 126 145 1,100 -647 Descending Houston Center
12:27PM 26.2019 -97.6589 360° North 118 136 400 -484 Descending Houston Center
12:28PM 26.2347 -97.6581 North 120 138 100 -290 Descending Houston Center

Login

Don't have an account? Register now (free) for customized features, flight alerts, and more!